sensor_id;sensor_type;location;lat;lon;timestamp;pressure;altitude;pressure_sealevel;temperature;humidity
54554;BME280;40450;55.848;-3.572;2023-04-07T00:01:23;99741.15;;;7.06;66.49
54554;BME280;40450;55.848;-3.572;2023-04-07T00:03:53;99738.42;;;6.96;65.37
54554;BME280;40450;55.848;-3.572;2023-04-07T00:06:23;99736.31;;;7.09;64.91
54554;BME280;40450;55.848;-3.572;2023-04-07T00:08:53;99733.20;;;6.96;67.20
54554;BME280;40450;55.848;-3.572;2023-04-07T00:11:24;99732.54;;;6.83;67.88
54554;BME280;40450;55.848;-3.572;2023-04-07T00:13:54;99732.42;;;6.61;68.48
54554;BME280;40450;55.848;-3.572;2023-04-07T00:16:25;99732.39;;;7.04;67.42
54554;BME280;40450;55.848;-3.572;2023-04-07T00:18:55;99734.21;;;7.07;67.69
54554;BME280;40450;55.848;-3.572;2023-04-07T00:21:25;99736.43;;;7.35;66.45
54554;BME280;40450;55.848;-3.572;2023-04-07T00:23:56;99736.35;;;7.35;66.80
54554;BME280;40450;55.848;-3.572;2023-04-07T00:26:26;99736.26;;;7.10;67.19
54554;BME280;40450;55.848;-3.572;2023-04-07T00:28:56;99731.95;;;7.14;66.25
54554;BME280;40450;55.848;-3.572;2023-04-07T00:31:26;99731.54;;;7.84;66.12
54554;BME280;40450;55.848;-3.572;2023-04-07T00:33:57;99727.81;;;7.95;65.76
54554;BME280;40450;55.848;-3.572;2023-04-07T00:36:28;99729.14;;;7.66;66.35
54554;BME280;40450;55.848;-3.572;2023-04-07T00:38:58;99729.96;;;8.13;65.84
54554;BME280;40450;55.848;-3.572;2023-04-07T00:41:28;99729.73;;;8.00;66.14
54554;BME280;40450;55.848;-3.572;2023-04-07T00:43:59;99728.19;;;7.64;67.10
54554;BME280;40450;55.848;-3.572;2023-04-07T00:46:29;99731.65;;;6.98;68.39
54554;BME280;40450;55.848;-3.572;2023-04-07T00:49:00;99733.46;;;7.43;68.13
54554;BME280;40450;55.848;-3.572;2023-04-07T00:51:30;99740.10;;;7.52;67.36
54554;BME280;40450;55.848;-3.572;2023-04-07T00:54:01;99741.04;;;7.34;68.76
54554;BME280;40450;55.848;-3.572;2023-04-07T00:56:31;99736.52;;;6.84;70.29
54554;BME280;40450;55.848;-3.572;2023-04-07T00:59:03;99741.29;;;6.08;71.25
54554;BME280;40450;55.848;-3.572;2023-04-07T01:01:37;99738.81;;;6.24;71.83
54554;BME280;40450;55.848;-3.572;2023-04-07T01:04:06;99742.45;;;6.40;71.90
54554;BME280;40450;55.848;-3.572;2023-04-07T01:06:38;99740.11;;;7.07;70.36
54554;BME280;40450;55.848;-3.572;2023-04-07T01:09:06;99744.28;;;7.13;70.33
54554;BME280;40450;55.848;-3.572;2023-04-07T01:11:38;99747.58;;;6.95;70.81
54554;BME280;40450;55.848;-3.572;2023-04-07T01:14:05;99750.26;;;6.75;71.04
54554;BME280;40450;55.848;-3.572;2023-04-07T01:16:40;99747.13;;;6.96;70.39
54554;BME280;40450;55.848;-3.572;2023-04-07T01:19:13;99747.36;;;6.84;70.61
54554;BME280;40450;55.848;-3.572;2023-04-07T01:21:36;99746.45;;;7.21;69.94
54554;BME280;40450;55.848;-3.572;2023-04-07T01:26:36;99754.85;;;6.65;71.46
54554;BME280;40450;55.848;-3.572;2023-04-07T01:31:39;99761.66;;;5.95;73.68
54554;BME280;40450;55.848;-3.572;2023-04-07T01:34:09;99758.74;;;5.98;73.20
54554;BME280;40450;55.848;-3.572;2023-04-07T01:36:38;99759.65;;;6.34;72.70
54554;BME280;40450;55.848;-3.572;2023-04-07T01:39:08;99757.78;;;6.05;73.55
54554;BME280;40450;55.848;-3.572;2023-04-07T01:41:40;99757.22;;;6.40;72.30
54554;BME280;40450;55.848;-3.572;2023-04-07T01:44:09;99753.55;;;7.07;71.74
54554;BME280;40450;55.848;-3.572;2023-04-07T01:46:40;99754.00;;;7.62;70.57
54554;BME280;40450;55.848;-3.572;2023-04-07T01:49:10;99755.44;;;7.71;69.48
54554;BME280;40450;55.848;-3.572;2023-04-07T01:51:41;99755.57;;;7.75;69.31
54554;BME280;40450;55.848;-3.572;2023-04-07T01:54:11;99754.74;;;7.93;68.38
54554;BME280;40450;55.848;-3.572;2023-04-07T01:56:41;99756.53;;;7.81;68.33
54554;BME280;40450;55.848;-3.572;2023-04-07T01:59:12;99760.06;;;7.79;68.45
54554;BME280;40450;55.848;-3.572;2023-04-07T02:01:42;99763.70;;;7.14;70.09
54554;BME280;40450;55.848;-3.572;2023-04-07T02:04:19;99764.75;;;6.93;70.62
54554;BME280;40450;55.848;-3.572;2023-04-07T02:06:46;99764.97;;;7.62;69.46
54554;BME280;40450;55.848;-3.572;2023-04-07T02:09:16;99768.56;;;7.72;69.02
54554;BME280;40450;55.848;-3.572;2023-04-07T02:11:44;99771.17;;;7.78;68.62
54554;BME280;40450;55.848;-3.572;2023-04-07T02:14:14;99768.36;;;7.45;69.23
54554;BME280;40450;55.848;-3.572;2023-04-07T02:16:45;99772.26;;;7.05;70.31
54554;BME280;40450;55.848;-3.572;2023-04-07T02:19:15;99772.19;;;6.46;71.50
54554;BME280;40450;55.848;-3.572;2023-04-07T02:21:46;99774.60;;;6.14;73.15
54554;BME280;40450;55.848;-3.572;2023-04-07T02:24:19;99773.70;;;5.73;74.03
54554;BME280;40450;55.848;-3.572;2023-04-07T02:26:46;99772.49;;;6.09;72.12
54554;BME280;40450;55.848;-3.572;2023-04-07T02:29:17;99770.60;;;6.28;72.79
54554;BME280;40450;55.848;-3.572;2023-04-07T02:31:47;99768.20;;;6.85;71.60
54554;BME280;40450;55.848;-3.572;2023-04-07T02:34:18;99766.87;;;7.14;71.24
54554;BME280;40450;55.848;-3.572;2023-04-07T02:36:48;99765.22;;;7.10;69.34
54554;BME280;40450;55.848;-3.572;2023-04-07T02:39:19;99763.27;;;7.08;69.93
54554;BME280;40450;55.848;-3.572;2023-04-07T02:41:49;99767.60;;;6.85;70.72
54554;BME280;40450;55.848;-3.572;2023-04-07T02:44:19;99771.93;;;6.50;71.27
54554;BME280;40450;55.848;-3.572;2023-04-07T02:46:50;99774.76;;;6.72;70.99
54554;BME280;40450;55.848;-3.572;2023-04-07T02:49:20;99784.65;;;6.33;72.64
54554;BME280;40450;55.848;-3.572;2023-04-07T02:51:51;99785.42;;;6.31;72.40
54554;BME280;40450;55.848;-3.572;2023-04-07T02:54:21;99785.24;;;6.02;73.70
54554;BME280;40450;55.848;-3.572;2023-04-07T02:56:58;99791.67;;;6.54;72.94
54554;BME280;40450;55.848;-3.572;2023-04-07T02:59:22;99788.54;;;7.17;71.89
54554;BME280;40450;55.848;-3.572;2023-04-07T03:01:52;99788.15;;;7.64;70.86
54554;BME280;40450;55.848;-3.572;2023-04-07T03:04:23;99789.44;;;7.86;67.92
54554;BME280;40450;55.848;-3.572;2023-04-07T03:06:53;99791.39;;;8.33;67.73
54554;BME280;40450;55.848;-3.572;2023-04-07T03:09:23;99788.99;;;7.89;65.99
54554;BME280;40450;55.848;-3.572;2023-04-07T03:11:54;99783.94;;;7.58;67.39
54554;BME280;40450;55.848;-3.572;2023-04-07T03:14:24;99784.19;;;7.33;68.29
54554;BME280;40450;55.848;-3.572;2023-04-07T03:16:55;99787.71;;;7.97;68.48
54554;BME280;40450;55.848;-3.572;2023-04-07T03:19:25;99788.46;;;7.70;67.19
54554;BME280;40450;55.848;-3.572;2023-04-07T03:21:55;99791.97;;;7.95;67.96
54554;BME280;40450;55.848;-3.572;2023-04-07T03:24:26;99796.32;;;7.45;67.10
54554;BME280;40450;55.848;-3.572;2023-04-07T03:26:56;99801.71;;;6.72;67.63
54554;BME280;40450;55.848;-3.572;2023-04-07T03:29:27;99804.60;;;6.19;68.84
54554;BME280;40450;55.848;-3.572;2023-04-07T03:31:57;99802.10;;;5.58;69.78
54554;BME280;40450;55.848;-3.572;2023-04-07T03:34:28;99802.04;;;5.16;72.25
54554;BME280;40450;55.848;-3.572;2023-04-07T03:36:58;99799.80;;;4.33;75.63
54554;BME280;40450;55.848;-3.572;2023-04-07T03:39:29;99801.24;;;4.47;74.29
54554;BME280;40450;55.848;-3.572;2023-04-07T03:41:59;99805.45;;;3.73;77.50
54554;BME280;40450;55.848;-3.572;2023-04-07T03:44:29;99807.77;;;3.65;77.21
54554;BME280;40450;55.848;-3.572;2023-04-07T03:47:00;99809.29;;;3.94;76.26
54554;BME280;40450;55.848;-3.572;2023-04-07T03:49:30;99810.72;;;4.38;75.27
54554;BME280;40450;55.848;-3.572;2023-04-07T03:52:01;99808.58;;;4.71;73.96
54554;BME280;40450;55.848;-3.572;2023-04-07T03:54:31;99808.85;;;4.52;74.15
54554;BME280;40450;55.848;-3.572;2023-04-07T03:57:02;99812.36;;;4.41;73.96
54554;BME280;40450;55.848;-3.572;2023-04-07T03:59:32;99816.30;;;4.25;74.13
54554;BME280;40450;55.848;-3.572;2023-04-07T04:02:02;99819.82;;;3.87;75.70
54554;BME280;40450;55.848;-3.572;2023-04-07T04:04:33;99819.19;;;3.67;76.88
54554;BME280;40450;55.848;-3.572;2023-04-07T04:07:03;99820.49;;;3.42;77.33
54554;BME280;40450;55.848;-3.572;2023-04-07T04:09:33;99822.69;;;3.55;77.17
54554;BME280;40450;55.848;-3.572;2023-04-07T04:12:04;99825.97;;;3.79;77.17
54554;BME280;40450;55.848;-3.572;2023-04-07T04:14:34;99825.16;;;3.74;77.17
54554;BME280;40450;55.848;-3.572;2023-04-07T04:17:05;99827.41;;;3.55;77.86
54554;BME280;40450;55.848;-3.572;2023-04-07T04:19:35;99828.98;;;3.50;77.49
54554;BME280;40450;55.848;-3.572;2023-04-07T04:22:06;99828.50;;;3.49;77.07
54554;BME280;40450;55.848;-3.572;2023-04-07T04:24:36;99827.78;;;3.68;77.10
54554;BME280;40450;55.848;-3.572;2023-04-07T04:27:07;99826.29;;;4.88;75.36
54554;BME280;40450;55.848;-3.572;2023-04-07T04:29:37;99830.51;;;5.00;72.98
54554;BME280;40450;55.848;-3.572;2023-04-07T04:32:08;99840.35;;;4.54;72.27
54554;BME280;40450;55.848;-3.572;2023-04-07T04:34:38;99843.54;;;4.26;72.87
54554;BME280;40450;55.848;-3.572;2023-04-07T04:37:09;99846.02;;;3.86;74.21
54554;BME280;40450;55.848;-3.572;2023-04-07T04:39:39;99850.59;;;4.40;73.51
54554;BME280;40450;55.848;-3.572;2023-04-07T04:42:10;99853.15;;;4.78;73.06
54554;BME280;40450;55.848;-3.572;2023-04-07T04:44:40;99854.89;;;5.59;73.16
54554;BME280;40450;55.848;-3.572;2023-04-07T04:47:11;99860.72;;;6.19;71.67
54554;BME280;40450;55.848;-3.572;2023-04-07T04:49:41;99862.50;;;6.23;70.51
54554;BME280;40450;55.848;-3.572;2023-04-07T04:52:11;99864.24;;;5.91;69.41
54554;BME280;40450;55.848;-3.572;2023-04-07T04:54:42;99860.58;;;5.73;69.76
54554;BME280;40450;55.848;-3.572;2023-04-07T04:57:12;99864.89;;;5.90;69.82
54554;BME280;40450;55.848;-3.572;2023-04-07T04:59:43;99868.67;;;6.46;70.04
54554;BME280;40450;55.848;-3.572;2023-04-07T05:02:13;99876.71;;;6.94;70.10
54554;BME280;40450;55.848;-3.572;2023-04-07T05:04:44;99877.94;;;7.18;67.74
54554;BME280;40450;55.848;-3.572;2023-04-07T05:07:14;99881.58;;;7.19;67.70
54554;BME280;40450;55.848;-3.572;2023-04-07T05:09:45;99885.93;;;6.78;65.63
54554;BME280;40450;55.848;-3.572;2023-04-07T05:12:15;99887.83;;;6.20;66.86
54554;BME280;40450;55.848;-3.572;2023-04-07T05:14:51;99891.17;;;6.31;66.38
54554;BME280;40450;55.848;-3.572;2023-04-07T05:17:16;99888.62;;;5.72;68.31
54554;BME280;40450;55.848;-3.572;2023-04-07T05:19:47;99881.92;;;5.95;68.25
54554;BME280;40450;55.848;-3.572;2023-04-07T05:22:17;99882.37;;;6.31;67.49
54554;BME280;40450;55.848;-3.572;2023-04-07T05:24:48;99886.15;;;6.85;67.16
54554;BME280;40450;55.848;-3.572;2023-04-07T05:27:18;99891.74;;;6.69;66.62
54554;BME280;40450;55.848;-3.572;2023-04-07T05:29:49;99894.75;;;6.63;65.83
54554;BME280;40450;55.848;-3.572;2023-04-07T05:32:19;99895.60;;;5.79;67.60
54554;BME280;40450;55.848;-3.572;2023-04-07T05:34:50;99896.51;;;5.60;67.80
54554;BME280;40450;55.848;-3.572;2023-04-07T05:37:20;99898.51;;;5.99;67.12
54554;BME280;40450;55.848;-3.572;2023-04-07T05:39:51;99901.97;;;5.84;67.77
54554;BME280;40450;55.848;-3.572;2023-04-07T05:42:21;99906.30;;;5.33;67.99
54554;BME280;40450;55.848;-3.572;2023-04-07T05:44:51;99905.03;;;4.87;69.48
54554;BME280;40450;55.848;-3.572;2023-04-07T05:47:22;99912.03;;;3.49;74.02
54554;BME280;40450;55.848;-3.572;2023-04-07T05:49:53;99920.12;;;2.80;76.63
54554;BME280;40450;55.848;-3.572;2023-04-07T05:52:23;99922.27;;;3.14;75.74
54554;BME280;40450;55.848;-3.572;2023-04-07T05:54:53;99919.87;;;3.36;75.52
54554;BME280;40450;55.848;-3.572;2023-04-07T05:57:24;99919.40;;;3.17;75.89
54554;BME280;40450;55.848;-3.572;2023-04-07T05:59:55;99930.48;;;2.64;77.27
54554;BME280;40450;55.848;-3.572;2023-04-07T06:02:25;99937.40;;;1.59;80.28
54554;BME280;40450;55.848;-3.572;2023-04-07T06:04:55;99939.00;;;1.44;80.49
54554;BME280;40450;55.848;-3.572;2023-04-07T06:07:26;99939.45;;;1.68;80.06
54554;BME280;40450;55.848;-3.572;2023-04-07T06:09:56;99939.09;;;2.09;79.38
54554;BME280;40450;55.848;-3.572;2023-04-07T06:12:27;99943.62;;;2.41;78.13
54554;BME280;40450;55.848;-3.572;2023-04-07T06:14:58;99947.97;;;2.90;79.56
54554;BME280;40450;55.848;-3.572;2023-04-07T06:17:28;99949.04;;;3.27;78.87
54554;BME280;40450;55.848;-3.572;2023-04-07T06:19:58;99946.87;;;4.12;77.18
54554;BME280;40450;55.848;-3.572;2023-04-07T06:22:29;99947.41;;;4.94;76.05
54554;BME280;40450;55.848;-3.572;2023-04-07T06:24:59;99954.44;;;5.29;74.31
54554;BME280;40450;55.848;-3.572;2023-04-07T06:27:30;99961.74;;;5.42;73.92
54554;BME280;40450;55.848;-3.572;2023-04-07T06:30:00;99962.24;;;5.63;73.08
54554;BME280;40450;55.848;-3.572;2023-04-07T06:32:31;99961.90;;;5.62;72.33
54554;BME280;40450;55.848;-3.572;2023-04-07T06:35:01;99964.43;;;6.12;73.16
54554;BME280;40450;55.848;-3.572;2023-04-07T06:37:32;99968.25;;;6.19;71.96
54554;BME280;40450;55.848;-3.572;2023-04-07T06:40:08;99969.46;;;6.40;71.76
54554;BME280;40450;55.848;-3.572;2023-04-07T06:42:34;99970.80;;;6.45;72.37
54554;BME280;40450;55.848;-3.572;2023-04-07T06:45:03;99976.78;;;5.66;74.31
54554;BME280;40450;55.848;-3.572;2023-04-07T06:47:33;99977.72;;;6.40;72.88
54554;BME280;40450;55.848;-3.572;2023-04-07T06:50:05;99985.63;;;6.69;72.70
54554;BME280;40450;55.848;-3.572;2023-04-07T06:52:34;99988.14;;;6.92;72.14
54554;BME280;40450;55.848;-3.572;2023-04-07T06:55:06;99989.82;;;6.57;71.98
54554;BME280;40450;55.848;-3.572;2023-04-07T06:57:35;99994.09;;;5.32;75.64
54554;BME280;40450;55.848;-3.572;2023-04-07T07:00:07;99995.80;;;4.54;77.67
54554;BME280;40450;55.848;-3.572;2023-04-07T07:02:36;99995.16;;;5.20;76.17
54554;BME280;40450;55.848;-3.572;2023-04-07T07:05:07;99994.99;;;5.69;75.38
54554;BME280;40450;55.848;-3.572;2023-04-07T07:07:37;99995.91;;;6.76;75.19
54554;BME280;40450;55.848;-3.572;2023-04-07T07:10:08;99993.53;;;6.81;73.56
54554;BME280;40450;55.848;-3.572;2023-04-07T07:12:38;99996.11;;;7.28;72.58
54554;BME280;40450;55.848;-3.572;2023-04-07T07:15:09;99995.52;;;7.30;72.60
54554;BME280;40450;55.848;-3.572;2023-04-07T07:17:39;99998.15;;;6.79;74.03
54554;BME280;40450;55.848;-3.572;2023-04-07T07:20:10;99999.35;;;6.27;76.08
54554;BME280;40450;55.848;-3.572;2023-04-07T07:22:40;100002.41;;;6.28;76.68
54554;BME280;40450;55.848;-3.572;2023-04-07T07:25:10;100000.96;;;6.35;76.51
54554;BME280;40450;55.848;-3.572;2023-04-07T07:27:40;100003.11;;;6.90;74.89
54554;BME280;40450;55.848;-3.572;2023-04-07T07:30:11;100004.94;;;7.15;74.26
54554;BME280;40450;55.848;-3.572;2023-04-07T07:32:41;100006.58;;;6.81;74.37
54554;BME280;40450;55.848;-3.572;2023-04-07T07:35:12;100010.99;;;7.08;74.69
54554;BME280;40450;55.848;-3.572;2023-04-07T07:37:42;100013.64;;;7.31;73.96
54554;BME280;40450;55.848;-3.572;2023-04-07T07:40:13;100013.16;;;7.04;74.01
54554;BME280;40450;55.848;-3.572;2023-04-07T07:42:44;100020.40;;;5.36;77.74
54554;BME280;40450;55.848;-3.572;2023-04-07T07:45:13;100021.54;;;5.28;79.09
54554;BME280;40450;55.848;-3.572;2023-04-07T07:47:44;100022.08;;;5.37;78.96
54554;BME280;40450;55.848;-3.572;2023-04-07T07:50:14;100026.56;;;5.13;79.99
54554;BME280;40450;55.848;-3.572;2023-04-07T07:52:44;100025.39;;;4.71;81.38
54554;BME280;40450;55.848;-3.572;2023-04-07T07:55:15;100024.17;;;5.53;80.29
54554;BME280;40450;55.848;-3.572;2023-04-07T07:57:45;100019.47;;;5.35;80.46
54554;BME280;40450;55.848;-3.572;2023-04-07T08:00:15;100017.72;;;5.97;78.90
54554;BME280;40450;55.848;-3.572;2023-04-07T08:02:46;100017.04;;;6.29;77.33
54554;BME280;40450;55.848;-3.572;2023-04-07T08:05:16;100013.88;;;6.43;76.24
54554;BME280;40450;55.848;-3.572;2023-04-07T08:07:47;100011.65;;;6.75;74.98
54554;BME280;40450;55.848;-3.572;2023-04-07T08:10:17;100016.81;;;7.60;75.50
54554;BME280;40450;55.848;-3.572;2023-04-07T08:12:47;100022.23;;;8.13;73.72
54554;BME280;40450;55.848;-3.572;2023-04-07T08:15:18;100013.58;;;8.85;73.34
54554;BME280;40450;55.848;-3.572;2023-04-07T08:17:48;100016.38;;;9.32;72.44
54554;BME280;40450;55.848;-3.572;2023-04-07T08:20:19;100018.21;;;9.68;70.42
54554;BME280;40450;55.848;-3.572;2023-04-07T08:22:49;100016.74;;;9.88;70.65
54554;BME280;40450;55.848;-3.572;2023-04-07T08:25:20;100016.24;;;10.05;68.78
54554;BME280;40450;55.848;-3.572;2023-04-07T08:27:50;100010.17;;;10.46;69.18
54554;BME280;40450;55.848;-3.572;2023-04-07T08:30:21;100016.07;;;10.30;67.17
54554;BME280;40450;55.848;-3.572;2023-04-07T08:32:51;100016.22;;;9.71;64.61
54554;BME280;40450;55.848;-3.572;2023-04-07T08:35:21;100018.91;;;9.74;65.82
54554;BME280;40450;55.848;-3.572;2023-04-07T08:37:52;100021.86;;;10.05;64.44
54554;BME280;40450;55.848;-3.572;2023-04-07T08:40:22;100028.13;;;8.35;66.90
54554;BME280;40450;55.848;-3.572;2023-04-07T08:42:53;100027.71;;;7.38;70.71
54554;BME280;40450;55.848;-3.572;2023-04-07T08:45:24;100023.55;;;9.77;66.64
54554;BME280;40450;55.848;-3.572;2023-04-07T08:47:54;100022.80;;;9.74;65.33
54554;BME280;40450;55.848;-3.572;2023-04-07T08:50:25;100025.22;;;10.10;66.49
54554;BME280;40450;55.848;-3.572;2023-04-07T08:52:55;100026.78;;;9.85;63.66
54554;BME280;40450;55.848;-3.572;2023-04-07T08:55:25;100027.31;;;9.91;64.04
54554;BME280;40450;55.848;-3.572;2023-04-07T08:57:56;100027.15;;;9.64;65.94
54554;BME280;40450;55.848;-3.572;2023-04-07T09:00:26;100028.40;;;9.90;63.95
54554;BME280;40450;55.848;-3.572;2023-04-07T09:02:57;100027.51;;;10.71;64.53
54554;BME280;40450;55.848;-3.572;2023-04-07T09:05:27;100027.34;;;10.67;64.43
54554;BME280;40450;55.848;-3.572;2023-04-07T09:07:57;100039.15;;;6.41;72.67
54554;BME280;40450;55.848;-3.572;2023-04-07T09:10:28;100034.41;;;8.49;68.02
54554;BME280;40450;55.848;-3.572;2023-04-07T09:12:58;100031.42;;;9.28;65.50
54554;BME280;40450;55.848;-3.572;2023-04-07T09:15:30;100033.35;;;10.36;65.58
54554;BME280;40450;55.848;-3.572;2023-04-07T09:17:59;100030.82;;;11.00;64.82
54554;BME280;40450;55.848;-3.572;2023-04-07T09:23:00;100033.17;;;9.11;64.71
54554;BME280;40450;55.848;-3.572;2023-04-07T09:25:30;100036.09;;;8.57;65.19
54554;BME280;40450;55.848;-3.572;2023-04-07T09:28:02;100029.26;;;9.38;64.77
54554;BME280;40450;55.848;-3.572;2023-04-07T09:30:32;100038.10;;;8.24;66.02
54554;BME280;40450;55.848;-3.572;2023-04-07T09:33:01;100028.15;;;9.39;65.03
54554;BME280;40450;55.848;-3.572;2023-04-07T09:35:32;100029.48;;;10.84;63.27
54554;BME280;40450;55.848;-3.572;2023-04-07T09:38:04;100033.99;;;10.87;62.41
54554;BME280;40450;55.848;-3.572;2023-04-07T09:40:33;100033.01;;;10.51;60.72
54554;BME280;40450;55.848;-3.572;2023-04-07T09:43:04;100036.14;;;10.04;62.25
54554;BME280;40450;55.848;-3.572;2023-04-07T09:45:33;100037.79;;;9.68;62.56
54554;BME280;40450;55.848;-3.572;2023-04-07T09:48:06;100034.07;;;10.42;62.47
54554;BME280;40450;55.848;-3.572;2023-04-07T09:50:35;100030.54;;;10.72;61.40
54554;BME280;40450;55.848;-3.572;2023-04-07T09:53:04;100039.21;;;7.67;67.49
54554;BME280;40450;55.848;-3.572;2023-04-07T09:55:36;100032.13;;;9.81;64.85
54554;BME280;40450;55.848;-3.572;2023-04-07T09:58:06;100033.65;;;10.25;62.03
54554;BME280;40450;55.848;-3.572;2023-04-07T10:00:37;100038.37;;;6.31;72.12
54554;BME280;40450;55.848;-3.572;2023-04-07T10:03:06;100031.48;;;10.17;62.16
54554;BME280;40450;55.848;-3.572;2023-04-07T10:05:38;100028.97;;;10.96;61.30
54554;BME280;40450;55.848;-3.572;2023-04-07T10:08:08;100027.10;;;11.01;59.91
54554;BME280;40450;55.848;-3.572;2023-04-07T10:10:41;100031.16;;;8.70;64.57
54554;BME280;40450;55.848;-3.572;2023-04-07T10:13:08;100034.85;;;7.18;68.96
54554;BME280;40450;55.848;-3.572;2023-04-07T10:15:38;100041.14;;;3.94;78.88
54554;BME280;40450;55.848;-3.572;2023-04-07T10:18:09;100033.56;;;6.98;71.86
54554;BME280;40450;55.848;-3.572;2023-04-07T10:20:40;100031.50;;;6.28;73.60
54554;BME280;40450;55.848;-3.572;2023-04-07T10:23:16;100021.51;;;8.82;67.56
54554;BME280;40450;55.848;-3.572;2023-04-07T10:25:40;100024.48;;;8.43;69.94
54554;BME280;40450;55.848;-3.572;2023-04-07T10:28:11;100022.89;;;7.99;71.00
54554;BME280;40450;55.848;-3.572;2023-04-07T10:30:41;100016.03;;;9.34;66.41
54554;BME280;40450;55.848;-3.572;2023-04-07T10:33:11;100014.82;;;9.96;63.39
54554;BME280;40450;55.848;-3.572;2023-04-07T10:38:13;100010.89;;;11.53;62.00
54554;BME280;40450;55.848;-3.572;2023-04-07T10:40:43;100013.51;;;11.48;61.71
54554;BME280;40450;55.848;-3.572;2023-04-07T10:48:14;100017.12;;;11.97;59.16
54554;BME280;40450;55.848;-3.572;2023-04-07T10:50:44;100017.08;;;12.27;60.34
54554;BME280;40450;55.848;-3.572;2023-04-07T10:53:15;100013.77;;;12.99;58.89
54554;BME280;40450;55.848;-3.572;2023-04-07T10:55:45;100011.94;;;12.97;57.55
54554;BME280;40450;55.848;-3.572;2023-04-07T10:58:20;100013.83;;;12.88;56.20
54554;BME280;40450;55.848;-3.572;2023-04-07T11:03:15;100015.41;;;13.38;57.47
54554;BME280;40450;55.848;-3.572;2023-04-07T11:05:46;100025.58;;;12.59;55.94
54554;BME280;40450;55.848;-3.572;2023-04-07T11:10:47;100023.31;;;11.50;58.79
54554;BME280;40450;55.848;-3.572;2023-04-07T11:13:18;100025.10;;;11.69;59.29
54554;BME280;40450;55.848;-3.572;2023-04-07T11:15:49;100027.57;;;12.65;56.86
54554;BME280;40450;55.848;-3.572;2023-04-07T11:18:19;100021.37;;;13.39;56.82
54554;BME280;40450;55.848;-3.572;2023-04-07T11:20:50;100032.54;;;12.72;55.44
54554;BME280;40450;55.848;-3.572;2023-04-07T11:23:20;100023.57;;;13.55;54.11
54554;BME280;40450;55.848;-3.572;2023-04-07T11:25:50;100026.09;;;13.13;54.28
54554;BME280;40450;55.848;-3.572;2023-04-07T11:28:19;100027.10;;;12.48;54.62
54554;BME280;40450;55.848;-3.572;2023-04-07T11:30:51;100026.01;;;13.00;55.15
54554;BME280;40450;55.848;-3.572;2023-04-07T11:33:21;100023.55;;;13.53;54.70
54554;BME280;40450;55.848;-3.572;2023-04-07T11:35:52;100022.79;;;13.89;54.04
54554;BME280;40450;55.848;-3.572;2023-04-07T11:38:22;100021.29;;;13.92;50.56
54554;BME280;40450;55.848;-3.572;2023-04-07T11:40:51;100020.94;;;14.30;48.40
54554;BME280;40450;55.848;-3.572;2023-04-07T11:43:23;100021.61;;;14.67;50.77
54554;BME280;40450;55.848;-3.572;2023-04-07T11:48:26;100025.15;;;13.34;51.17
54554;BME280;40450;55.848;-3.572;2023-04-07T11:50:52;100027.81;;;10.26;57.75
54554;BME280;40450;55.848;-3.572;2023-04-07T11:53:27;100037.69;;;8.18;63.23
54554;BME280;40450;55.848;-3.572;2023-04-07T11:56:00;100032.36;;;7.11;67.31
54554;BME280;40450;55.848;-3.572;2023-04-07T11:58:23;100033.73;;;8.05;66.62
54554;BME280;40450;55.848;-3.572;2023-04-07T12:00:54;100034.80;;;7.55;67.93
54554;BME280;40450;55.848;-3.572;2023-04-07T12:03:24;100031.06;;;9.26;63.67
54554;BME280;40450;55.848;-3.572;2023-04-07T12:05:55;100035.95;;;8.84;65.33
54554;BME280;40450;55.848;-3.572;2023-04-07T12:11:01;100028.42;;;10.33;62.44
54554;BME280;40450;55.848;-3.572;2023-04-07T12:13:26;100023.66;;;10.59;58.88
54554;BME280;40450;55.848;-3.572;2023-04-07T12:15:58;100019.34;;;10.54;61.48
54554;BME280;40450;55.848;-3.572;2023-04-07T12:18:27;100021.80;;;11.73;56.17
54554;BME280;40450;55.848;-3.572;2023-04-07T12:20:57;100020.31;;;11.37;56.22
54554;BME280;40450;55.848;-3.572;2023-04-07T12:23:27;100020.34;;;8.86;63.47
54554;BME280;40450;55.848;-3.572;2023-04-07T12:25:57;100014.99;;;11.66;57.25
54554;BME280;40450;55.848;-3.572;2023-04-07T12:28:28;100015.79;;;12.28;55.97
54554;BME280;40450;55.848;-3.572;2023-04-07T12:30:58;100016.07;;;12.88;56.12
54554;BME280;40450;55.848;-3.572;2023-04-07T12:33:29;100017.76;;;12.77;55.61
54554;BME280;40450;55.848;-3.572;2023-04-07T12:35:59;100022.06;;;10.25;59.52
54554;BME280;40450;55.848;-3.572;2023-04-07T12:38:29;100018.95;;;8.86;63.40
54554;BME280;40450;55.848;-3.572;2023-04-07T12:41:00;100010.23;;;10.94;60.23
54554;BME280;40450;55.848;-3.572;2023-04-07T12:43:30;100017.89;;;7.65;68.13
54554;BME280;40450;55.848;-3.572;2023-04-07T12:46:00;100014.30;;;9.79;65.19
54554;BME280;40450;55.848;-3.572;2023-04-07T12:48:31;100022.09;;;7.92;66.48
54554;BME280;40450;55.848;-3.572;2023-04-07T12:51:02;100016.01;;;7.28;68.64
54554;BME280;40450;55.848;-3.572;2023-04-07T12:53:32;100015.84;;;7.37;69.71
54554;BME280;40450;55.848;-3.572;2023-04-07T12:56:02;100015.63;;;7.14;68.91
54554;BME280;40450;55.848;-3.572;2023-04-07T12:58:32;100022.48;;;7.60;67.15
54554;BME280;40450;55.848;-3.572;2023-04-07T13:01:03;100017.13;;;6.34;71.96
54554;BME280;40450;55.848;-3.572;2023-04-07T13:03:33;100010.87;;;9.59;65.31
54554;BME280;40450;55.848;-3.572;2023-04-07T13:06:04;100012.73;;;9.46;62.76
54554;BME280;40450;55.848;-3.572;2023-04-07T13:08:34;100017.09;;;9.71;61.37
54554;BME280;40450;55.848;-3.572;2023-04-07T13:11:04;100010.69;;;8.89;64.46
54554;BME280;40450;55.848;-3.572;2023-04-07T13:13:35;100007.25;;;11.36;58.08
54554;BME280;40450;55.848;-3.572;2023-04-07T13:16:05;100007.29;;;12.28;54.99
54554;BME280;40450;55.848;-3.572;2023-04-07T13:18:35;100009.32;;;8.87;61.43
54554;BME280;40450;55.848;-3.572;2023-04-07T13:21:05;100017.11;;;7.56;66.27
54554;BME280;40450;55.848;-3.572;2023-04-07T13:23:36;100005.75;;;9.01;62.62
54554;BME280;40450;55.848;-3.572;2023-04-07T13:26:11;100009.87;;;6.44;68.05
54554;BME280;40450;55.848;-3.572;2023-04-07T13:28:37;100015.13;;;7.41;68.31
54554;BME280;40450;55.848;-3.572;2023-04-07T13:31:07;100005.38;;;6.08;69.85
54554;BME280;40450;55.848;-3.572;2023-04-07T13:33:37;100008.19;;;8.49;65.20